Estación Meteorológica Peña el Pijo (Robertgarden) [ 11/14/19 13:21:37 CET ]

Fecha Hora Presion(HPa) Temp (°C) Humedad % Rocio (°C) Viento ( m/s) Direccion Lluvia 1Hora(mm) Lluvia 24H(mm) LLuvia Total(mm)
2019-Jul-16 01:09:26 1009.900 - - - - NNW     342.62
2019-Jul-16 02:09:37 1009.700 - - - - NNW     342.62
2019-Jul-16 03:10:18 1009.800 - - - - NNW     342.62
2019-Jul-16 04:09:33 1009.600 - - - - NNW     342.62
2019-Jul-16 05:09:22 1009.600 - - - - NNW     342.62
2019-Jul-16 06:09:55 1009.700 - - - - NNW     342.62
2019-Jul-16 07:09:24 1010.100 - - - - NNW     342.62
2019-Jul-16 08:09:08 1010.300 - - - - NNW     342.62
2019-Jul-16 09:09:02 1010.300 - - - - N     342.62
2019-Jul-16 10:01:43 1010.100 25.1 52 14.5         342.62
2019-Jul-16 11:01:41 1010.500 28.6 43 14.8 3.1 SW     342.62
2019-Jul-16 12:01:54 1010.300 30.2 38 14.3         342.62
2019-Jul-16 13:01:51 1010.500 31.6 36 14.6         342.62
2019-Jul-16 14:01:37 1010.000 32.4 33 14.0 0.5 SW     342.62
2019-Jul-16 15:01:43 1009.700 32.4 34 14.4         342.62
2019-Jul-16 16:01:22 1009.500 31.8 34 13.9         342.62
2019-Jul-16 17:01:40 1009.500 29.6 38 13.8         342.62
2019-Jul-16 18:01:40 1009.200 29.2 42 15.0 2.8 W     342.62
2019-Jul-16 19:01:39 1009.200 29.6 43 15.7 1.2 NE     342.62
2019-Jul-16 20:02:01 1009.300 27.8 47 15.4         342.62
2019-Jul-16 21:02:00 1009.600 26.2 51 15.3         342.62
2019-Jul-16 22:01:45 1009.800 23.9 55 14.3         342.62
2019-Jul-16 23:01:47 1010.400 21.6 63 14.2         342.62

Temperatura Máxima:32°    Temperatura Mínima:
Presión Máxima:1010.500 Hpa    Presión Mínima:1009.200 Hpa


Volver